createdAt,value
2022-12-24T00:01:06.068Z,24.60
2022-12-24T00:03:34.135Z,17.70
2022-12-24T00:06:08.580Z,20.25
2022-12-24T00:08:36.192Z,24.60
2022-12-24T00:11:03.292Z,21.95
2022-12-24T00:13:30.371Z,18.70
2022-12-24T00:15:57.414Z,21.10
2022-12-24T00:18:24.572Z,21.70
2022-12-24T00:20:51.858Z,26.45
2022-12-24T00:23:19.969Z,25.08
2022-12-24T00:25:47.462Z,25.77
2022-12-24T00:28:15.707Z,28.77
2022-12-24T00:30:44.015Z,25.98
2022-12-24T00:33:11.747Z,32.22
2022-12-24T00:35:40.899Z,42.95
2022-12-24T00:38:09.018Z,25.80
2022-12-24T00:40:36.305Z,27.77
2022-12-24T00:43:03.601Z,20.67
2022-12-24T00:45:30.731Z,29.73
2022-12-24T00:47:57.746Z,25.85
2022-12-24T00:50:24.981Z,25.25
2022-12-24T00:52:52.091Z,20.52
2022-12-24T00:55:20.134Z,26.63
2022-12-24T00:57:47.261Z,32.67
2022-12-24T01:00:16.265Z,34.35
2022-12-24T01:02:43.756Z,25.42
2022-12-24T01:05:11.789Z,29.20
2022-12-24T01:07:44.647Z,23.90
2022-12-24T01:10:14.332Z,28.33
2022-12-24T01:12:41.985Z,23.70
2022-12-24T01:15:10.037Z,23.15
2022-12-24T01:17:37.208Z,29.00
2022-12-24T01:20:09.869Z,20.63
2022-12-24T01:22:37.011Z,22.50
2022-12-24T01:25:04.521Z,21.98
2022-12-24T01:27:33.177Z,21.83
2022-12-24T01:30:00.289Z,23.40
2022-12-24T01:32:27.318Z,22.00
2022-12-24T01:34:54.332Z,23.83
2022-12-24T01:37:21.425Z,20.15
2022-12-24T01:39:48.685Z,23.83
2022-12-24T01:42:39.310Z,23.67
2022-12-24T01:45:31.316Z,21.00
2022-12-24T01:47:58.563Z,19.15
2022-12-24T01:50:26.051Z,27.65
2022-12-24T01:52:53.656Z,26.27
2022-12-24T01:55:21.200Z,25.08
2022-12-24T01:57:55.568Z,24.67
2022-12-24T02:00:22.996Z,23.27
2022-12-24T02:02:52.884Z,27.73
2022-12-24T02:05:30.067Z,25.75
2022-12-24T02:07:58.586Z,26.48
2022-12-24T02:10:25.595Z,29.10
2022-12-24T02:12:52.995Z,27.67
2022-12-24T02:15:21.947Z,29.85
2022-12-24T02:18:04.998Z,32.33
2022-12-24T02:20:54.606Z,30.00
2022-12-24T02:23:33.542Z,24.42
2022-12-24T02:26:29.945Z,27.35
2022-12-24T02:29:15.125Z,29.80
2022-12-24T02:31:50.794Z,28.13
2022-12-24T02:34:46.819Z,26.45
2022-12-24T02:37:57.898Z,26.58
2022-12-24T02:40:34.166Z,22.00
2022-12-24T02:43:06.038Z,22.35
2022-12-24T02:45:35.649Z,23.08
2022-12-24T02:48:02.872Z,20.02
2022-12-24T02:50:29.941Z,21.23
2022-12-24T02:52:58.316Z,19.23
2022-12-24T02:55:48.632Z,20.75
2022-12-24T03:01:18.004Z,19.48
2022-12-24T03:04:07.553Z,20.63
2022-12-24T03:06:52.308Z,21.80
2022-12-24T03:09:34.038Z,20.30
2022-12-24T03:12:23.588Z,18.80
2022-12-24T03:14:51.611Z,18.83
2022-12-24T03:17:20.065Z,17.08
2022-12-24T03:19:47.914Z,16.70
2022-12-24T03:22:17.411Z,15.15
2022-12-24T03:24:44.618Z,16.38
2022-12-24T03:27:13.475Z,17.05
2022-12-24T03:29:41.675Z,15.15
2022-12-24T03:32:09.174Z,15.95
2022-12-24T03:34:36.369Z,16.58
2022-12-24T03:37:04.063Z,17.70
2022-12-24T03:39:31.150Z,16.65
2022-12-24T03:41:58.184Z,19.38
2022-12-24T03:44:25.223Z,19.80
2022-12-24T03:46:52.336Z,20.75
2022-12-24T03:49:19.476Z,20.30
2022-12-24T03:51:46.502Z,20.67
2022-12-24T03:54:13.551Z,21.52
2022-12-24T03:56:40.565Z,20.58
2022-12-24T03:59:07.705Z,21.25
2022-12-24T04:01:34.891Z,21.42
2022-12-24T04:04:02.115Z,19.65
2022-12-24T04:06:29.252Z,19.73
2022-12-24T04:08:56.242Z,19.88
2022-12-24T04:11:23.350Z,18.63
2022-12-24T04:13:50.414Z,17.70
2022-12-24T04:16:17.823Z,17.58
2022-12-24T04:18:45.188Z,17.88
2022-12-24T04:21:12.377Z,19.15
2022-12-24T04:23:40.894Z,17.77
2022-12-24T04:26:10.065Z,18.52
2022-12-24T04:28:38.635Z,18.85
2022-12-24T04:31:16.018Z,18.35
2022-12-24T04:33:43.955Z,19.17
2022-12-24T04:36:14.863Z,18.73
2022-12-24T04:38:41.943Z,18.58
2022-12-24T04:41:17.414Z,18.10
2022-12-24T04:43:50.154Z,16.88
2022-12-24T04:46:23.607Z,17.83
2022-12-24T04:48:52.932Z,18.20
2022-12-24T04:51:20.987Z,18.08
2022-12-24T04:53:48.148Z,16.20
2022-12-24T04:56:21.843Z,18.00
2022-12-24T04:58:49.478Z,17.85
2022-12-24T05:01:20.300Z,17.42
2022-12-24T05:03:48.049Z,18.23
2022-12-24T05:06:18.250Z,18.52
2022-12-24T05:11:15.858Z,17.95
2022-12-24T05:13:47.226Z,20.90
2022-12-24T05:16:17.164Z,16.15
2022-12-24T05:18:44.450Z,19.35
2022-12-24T05:21:14.727Z,20.10
2022-12-24T05:26:34.758Z,19.27
2022-12-24T05:29:03.490Z,18.27
2022-12-24T05:31:31.899Z,19.75
2022-12-24T05:33:59.132Z,19.08
2022-12-24T05:36:26.516Z,17.33
2022-12-24T05:38:53.898Z,20.23
2022-12-24T05:41:21.293Z,20.42
2022-12-24T05:43:48.373Z,20.50
2022-12-24T05:46:18.960Z,19.95
2022-12-24T05:48:47.599Z,20.20
2022-12-24T05:51:18.974Z,19.25
2022-12-24T05:53:47.202Z,17.52
2022-12-24T05:56:17.896Z,18.77
2022-12-24T05:58:45.407Z,19.85
2022-12-24T06:01:13.306Z,18.08
2022-12-24T06:03:41.267Z,21.08
2022-12-24T06:06:12.148Z,21.95
2022-12-24T06:08:40.398Z,21.67
2022-12-24T06:11:11.167Z,20.88
2022-12-24T06:13:38.707Z,18.92
2022-12-24T06:16:07.741Z,21.27
2022-12-24T06:18:36.238Z,23.27
2022-12-24T06:21:05.378Z,21.15
2022-12-24T06:23:34.935Z,21.50
2022-12-24T06:26:03.465Z,19.80
2022-12-24T06:28:32.121Z,19.45
2022-12-24T06:31:03.432Z,20.45
2022-12-24T06:33:32.046Z,20.08
2022-12-24T06:35:59.381Z,19.23
2022-12-24T06:38:27.093Z,18.95
2022-12-24T06:40:56.052Z,17.25
2022-12-24T06:43:23.354Z,20.20
2022-12-24T06:45:50.491Z,16.45
2022-12-24T06:48:18.060Z,17.90
2022-12-24T06:50:45.085Z,18.52
2022-12-24T06:53:12.364Z,17.98
2022-12-24T06:55:39.677Z,19.58
2022-12-24T06:58:06.873Z,20.58
2022-12-24T07:00:34.249Z,20.35
2022-12-24T07:03:01.297Z,19.38
2022-12-24T07:05:29.420Z,19.63
2022-12-24T07:07:57.050Z,19.08
2022-12-24T07:10:24.287Z,20.48
2022-12-24T07:12:51.437Z,20.63
2022-12-24T07:15:18.599Z,20.08
2022-12-24T07:17:45.692Z,20.17
2022-12-24T07:20:15.265Z,20.77
2022-12-24T07:22:43.051Z,19.85
2022-12-24T07:25:11.795Z,20.45
2022-12-24T07:27:39.465Z,20.42
2022-12-24T07:30:07.233Z,19.90
2022-12-24T07:32:34.532Z,20.75
2022-12-24T07:35:01.624Z,19.75
2022-12-24T07:37:28.884Z,19.25
2022-12-24T07:39:56.216Z,20.00
2022-12-24T07:42:23.582Z,17.88
2022-12-24T07:44:51.199Z,20.25
2022-12-24T07:47:18.336Z,20.17
2022-12-24T07:49:45.456Z,21.77
2022-12-24T07:52:12.517Z,22.67
2022-12-24T07:54:39.693Z,19.02
2022-12-24T07:57:06.830Z,21.40
2022-12-24T07:59:34.449Z,21.23
2022-12-24T08:02:01.753Z,23.90
2022-12-24T08:04:32.797Z,23.77
2022-12-24T08:06:59.879Z,27.67
2022-12-24T08:09:26.975Z,27.08
2022-12-24T08:11:54.061Z,26.10
2022-12-24T08:14:21.179Z,24.63
2022-12-24T08:16:48.258Z,26.70
2022-12-24T08:19:16.883Z,25.98
2022-12-24T08:21:44.090Z,25.60
2022-12-24T08:24:11.189Z,23.25
2022-12-24T08:26:38.293Z,23.58
2022-12-24T08:29:06.495Z,23.83
2022-12-24T08:31:37.191Z,22.95
2022-12-24T08:34:05.736Z,22.67
2022-12-24T08:36:33.656Z,22.80
2022-12-24T08:39:03.810Z,20.83
2022-12-24T08:43:58.559Z,19.08
2022-12-24T08:46:25.982Z,18.08
2022-12-24T08:48:53.172Z,17.75
2022-12-24T08:51:20.413Z,18.83
2022-12-24T08:53:47.549Z,18.70
2022-12-24T08:56:14.668Z,17.95
2022-12-24T08:58:41.797Z,17.02
2022-12-24T09:01:14.414Z,16.35
2022-12-24T09:03:42.362Z,17.00
2022-12-24T09:06:09.791Z,15.95
2022-12-24T09:08:37.057Z,15.93
2022-12-24T09:11:13.456Z,15.65
2022-12-24T09:13:41.291Z,15.57
2022-12-24T09:16:09.113Z,15.68
2022-12-24T09:18:36.774Z,16.42
2022-12-24T09:21:06.832Z,14.23
2022-12-24T09:23:36.365Z,14.23
2022-12-24T09:26:32.271Z,14.57
2022-12-24T09:29:01.016Z,13.38
2022-12-24T09:31:28.987Z,13.23
2022-12-24T09:33:56.275Z,14.25
2022-12-24T09:36:23.360Z,13.35
2022-12-24T09:38:50.767Z,13.10
2022-12-24T09:41:45.591Z,13.52
2022-12-24T09:44:20.766Z,12.13
2022-12-24T09:46:49.580Z,11.85
2022-12-24T09:49:25.361Z,12.50
2022-12-24T09:52:05.845Z,11.35
2022-12-24T09:54:37.841Z,10.70
2022-12-24T09:57:19.305Z,10.30
2022-12-24T09:59:47.526Z,9.80
2022-12-24T10:02:18.019Z,9.30
2022-12-24T10:04:47.510Z,10.68
2022-12-24T10:07:33.063Z,9.83
2022-12-24T10:10:11.881Z,9.75
2022-12-24T10:13:04.879Z,9.63
2022-12-24T10:15:40.207Z,10.40
2022-12-24T10:18:13.948Z,10.00
2022-12-24T10:21:05.966Z,10.35
2022-12-24T10:23:44.355Z,10.50
2022-12-24T10:26:25.981Z,9.77
2022-12-24T10:29:02.714Z,9.55
2022-12-24T10:31:40.428Z,10.20
2022-12-24T10:34:22.685Z,9.98
2022-12-24T10:36:50.065Z,10.05
2022-12-24T10:39:20.612Z,9.45
2022-12-24T10:41:54.066Z,9.30
2022-12-24T10:44:27.928Z,9.93
2022-12-24T10:46:55.162Z,9.57
2022-12-24T10:49:52.603Z,9.48
2022-12-24T10:52:27.956Z,9.80
2022-12-24T10:55:19.823Z,10.10
2022-12-24T10:58:02.720Z,9.65
2022-12-24T11:00:35.830Z,9.82
2022-12-24T11:03:34.301Z,10.93
2022-12-24T11:06:06.288Z,10.30
2022-12-24T11:08:34.559Z,15.55
2022-12-24T11:11:12.434Z,10.40
2022-12-24T11:14:02.262Z,9.55
2022-12-24T11:16:33.477Z,9.20
2022-12-24T11:19:04.432Z,9.25
2022-12-24T11:21:35.975Z,8.55
2022-12-24T11:24:24.660Z,9.02
2022-12-24T11:26:51.739Z,9.57
2022-12-24T11:29:28.036Z,9.95
2022-12-24T11:32:24.564Z,9.50
2022-12-24T11:34:51.598Z,10.27
2022-12-24T11:37:25.447Z,8.77
2022-12-24T11:39:55.937Z,9.07
2022-12-24T11:42:26.049Z,9.63
2022-12-24T11:44:57.186Z,8.90
2022-12-24T11:47:39.069Z,9.00
2022-12-24T11:50:27.584Z,8.32
2022-12-24T11:53:03.420Z,8.57
2022-12-24T11:55:36.368Z,8.60
2022-12-24T11:58:30.545Z,8.93
2022-12-24T12:01:31.007Z,8.18
2022-12-24T12:04:00.095Z,8.05
2022-12-24T12:06:37.856Z,7.90
2022-12-24T12:09:14.579Z,8.75
2022-12-24T12:11:44.572Z,8.07
2022-12-24T12:14:21.300Z,9.10
2022-12-24T12:17:14.827Z,8.95
2022-12-24T12:19:51.604Z,8.40
2022-12-24T12:22:30.747Z,8.55
2022-12-24T12:25:00.303Z,8.35
2022-12-24T12:27:43.768Z,9.05
2022-12-24T12:30:20.580Z,8.65
2022-12-24T12:33:18.614Z,8.98
2022-12-24T12:35:47.179Z,8.38
2022-12-24T12:38:26.221Z,7.70
2022-12-24T12:41:13.746Z,9.40
2022-12-24T12:43:52.880Z,8.55
2022-12-24T12:46:55.785Z,8.25
2022-12-24T12:49:37.775Z,9.10
2022-12-24T12:52:18.768Z,8.88
2022-12-24T12:55:00.813Z,8.73
2022-12-24T12:57:32.060Z,8.95
2022-12-24T13:00:12.080Z,9.65
2022-12-24T13:02:42.367Z,9.80
2022-12-24T13:08:00.506Z,9.52
2022-12-24T13:10:50.892Z,9.10
2022-12-24T13:16:06.717Z,8.77
2022-12-24T13:18:55.452Z,10.13
2022-12-24T13:21:26.390Z,9.30
2022-12-24T13:24:16.572Z,11.02
2022-12-24T13:26:44.078Z,10.15
2022-12-24T13:29:34.467Z,10.48
2022-12-24T13:32:20.353Z,10.23
2022-12-24T13:34:50.522Z,10.82
2022-12-24T13:37:24.807Z,11.43
2022-12-24T13:40:07.293Z,11.20
2022-12-24T13:42:59.381Z,10.77
2022-12-24T13:45:30.802Z,11.85
2022-12-24T13:48:06.831Z,130.25
2022-12-24T13:50:37.036Z,51.20
2022-12-24T13:53:06.101Z,93.63
2022-12-24T13:55:34.943Z,50.47
2022-12-24T13:58:05.115Z,31.50
2022-12-24T14:00:53.814Z,13.13
2022-12-24T14:03:32.318Z,12.23
2022-12-24T14:06:05.908Z,13.15
2022-12-24T14:08:39.126Z,14.13
2022-12-24T14:11:20.308Z,13.73
2022-12-24T14:13:47.477Z,13.93
2022-12-24T14:16:28.349Z,12.60
2022-12-24T14:19:15.419Z,11.95
2022-12-24T14:22:01.555Z,13.38
2022-12-24T14:24:35.759Z,12.70
2022-12-24T14:27:25.000Z,12.15
2022-12-24T14:30:40.482Z,12.45
2022-12-24T14:33:31.275Z,12.35
2022-12-24T14:35:58.994Z,14.25
2022-12-24T14:38:26.699Z,14.48
2022-12-24T14:41:27.908Z,14.15
2022-12-24T14:44:45.564Z,16.10
2022-12-24T14:47:34.201Z,14.25
2022-12-24T14:50:25.602Z,14.23
2022-12-24T14:53:19.200Z,14.93
2022-12-24T14:55:49.130Z,14.15
2022-12-24T14:58:19.283Z,16.25
2022-12-24T15:00:46.609Z,14.75
2022-12-24T15:03:16.376Z,14.15
2022-12-24T15:05:44.457Z,14.82
2022-12-24T15:08:18.192Z,14.82
2022-12-24T15:10:50.695Z,14.60
2022-12-24T15:13:37.937Z,14.35
2022-12-24T15:16:09.101Z,15.18
2022-12-24T15:18:42.058Z,16.83
2022-12-24T15:21:18.616Z,17.92
2022-12-24T15:23:51.240Z,17.15
2022-12-24T15:26:29.116Z,15.80
2022-12-24T15:29:03.343Z,17.83
2022-12-24T15:31:32.070Z,17.88
2022-12-24T15:34:00.518Z,17.63
2022-12-24T15:36:37.259Z,17.30
2022-12-24T15:39:08.606Z,17.33
2022-12-24T15:42:01.787Z,17.17
2022-12-24T15:44:40.864Z,17.92
2022-12-24T15:47:15.529Z,17.60
2022-12-24T15:49:48.119Z,16.73
2022-12-24T15:52:19.936Z,20.08
2022-12-24T15:54:55.455Z,17.38
2022-12-24T15:57:33.683Z,18.40
2022-12-24T16:00:03.663Z,18.63
2022-12-24T16:02:35.039Z,20.85
2022-12-24T16:05:33.286Z,19.60
2022-12-24T16:08:08.569Z,19.67
2022-12-24T16:10:40.008Z,20.27
2022-12-24T16:13:32.339Z,20.75
2022-12-24T16:16:05.633Z,22.45
2022-12-24T16:18:37.867Z,21.15
2022-12-24T16:21:06.970Z,19.77
2022-12-24T16:23:39.768Z,21.13
2022-12-24T16:26:06.845Z,19.00
2022-12-24T16:28:34.065Z,21.35
2022-12-24T16:31:01.523Z,21.27
2022-12-24T16:33:29.260Z,19.10
2022-12-24T16:35:57.189Z,21.15
2022-12-24T16:38:25.308Z,22.27
2022-12-24T16:40:52.525Z,23.83
2022-12-24T16:43:38.027Z,23.85
2022-12-24T16:46:07.491Z,24.20
2022-12-24T16:48:37.915Z,26.65
2022-12-24T16:51:05.287Z,28.33
2022-12-24T16:53:32.380Z,31.75
2022-12-24T16:55:59.480Z,27.05
2022-12-24T16:58:26.588Z,30.58
2022-12-24T17:00:53.821Z,32.50
2022-12-24T17:03:21.033Z,31.98
2022-12-24T17:05:48.354Z,34.00
2022-12-24T17:08:15.496Z,34.47
2022-12-24T17:10:50.373Z,32.97
2022-12-24T17:13:17.497Z,31.05
2022-12-24T17:15:44.597Z,34.50
2022-12-24T17:18:11.786Z,29.48
2022-12-24T17:20:38.864Z,24.08
2022-12-24T17:23:06.016Z,24.73
2022-12-24T17:25:33.169Z,25.20
2022-12-24T17:28:00.298Z,27.20
2022-12-24T17:30:27.383Z,24.38
2022-12-24T17:32:54.450Z,27.35
2022-12-24T17:35:21.571Z,26.35
2022-12-24T17:37:48.754Z,25.02
2022-12-24T17:40:15.943Z,26.52
2022-12-24T17:42:43.790Z,25.52
2022-12-24T17:45:11.105Z,28.90
2022-12-24T17:47:38.252Z,26.42
2022-12-24T17:50:06.790Z,25.83
2022-12-24T17:52:34.925Z,27.02
2022-12-24T17:55:02.074Z,26.73
2022-12-24T17:57:29.185Z,24.98
2022-12-24T17:59:57.568Z,24.83
2022-12-24T18:02:24.767Z,24.13
2022-12-24T18:04:52.100Z,24.38
2022-12-24T18:07:19.139Z,26.65
2022-12-24T18:09:46.336Z,31.55
2022-12-24T18:12:13.689Z,29.23
2022-12-24T18:14:40.852Z,28.13
2022-12-24T18:17:08.029Z,29.80
2022-12-24T18:19:35.290Z,29.55
2022-12-24T18:22:02.358Z,27.15
2022-12-24T18:24:29.494Z,27.48
2022-12-24T18:26:56.917Z,28.55
2022-12-24T18:29:24.109Z,28.00
2022-12-24T18:31:51.292Z,28.75
2022-12-24T18:34:18.593Z,27.10
2022-12-24T18:36:49.738Z,28.70
2022-12-24T18:39:21.963Z,29.65
2022-12-24T18:41:49.806Z,27.77
2022-12-24T18:44:22.558Z,31.13
2022-12-24T18:46:51.934Z,28.75
2022-12-24T18:49:19.069Z,28.42
2022-12-24T18:51:46.193Z,28.15
2022-12-24T18:54:13.211Z,29.85
2022-12-24T18:56:40.299Z,28.98
2022-12-24T18:59:07.554Z,28.88
2022-12-24T19:01:35.884Z,29.50
2022-12-24T19:04:03.524Z,30.10
2022-12-24T19:06:30.661Z,31.42
2022-12-24T19:09:00.234Z,31.38
2022-12-24T19:11:30.390Z,32.33
2022-12-24T19:13:58.486Z,30.63
2022-12-24T19:16:26.597Z,33.15
2022-12-24T19:18:53.956Z,33.47
2022-12-24T19:21:21.144Z,31.05
2022-12-24T19:23:48.749Z,35.22
2022-12-24T19:26:17.258Z,33.42
2022-12-24T19:28:44.979Z,35.95
2022-12-24T19:31:24.890Z,36.08
2022-12-24T19:33:54.739Z,39.50
2022-12-24T19:36:31.042Z,41.72
2022-12-24T19:38:59.287Z,35.13
2022-12-24T19:41:28.827Z,36.40
2022-12-24T19:43:58.508Z,33.10
2022-12-24T19:46:28.219Z,31.75
2022-12-24T19:48:57.888Z,34.63
2022-12-24T19:51:26.880Z,35.17
2022-12-24T19:53:55.998Z,37.17
2022-12-24T19:56:24.782Z,34.60
2022-12-24T19:58:52.303Z,30.60
2022-12-24T20:01:21.991Z,33.63
2022-12-24T20:03:50.690Z,34.10
2022-12-24T20:06:20.007Z,33.47
2022-12-24T20:08:47.440Z,34.27
2022-12-24T20:11:17.192Z,34.05
2022-12-24T20:13:45.137Z,36.15
2022-12-24T20:16:15.309Z,35.88
2022-12-24T20:21:12.519Z,32.65
2022-12-24T20:26:10.958Z,30.98
2022-12-24T20:28:38.452Z,31.17
2022-12-24T20:31:18.230Z,37.35
2022-12-24T20:33:46.312Z,38.50
2022-12-24T20:36:18.873Z,38.40
2022-12-24T20:38:47.097Z,39.28
2022-12-24T20:41:17.117Z,42.35
2022-12-24T20:43:48.400Z,37.97
2022-12-24T20:46:18.100Z,42.28
2022-12-24T20:48:45.582Z,46.70
2022-12-24T20:51:24.996Z,40.90
2022-12-24T20:53:58.968Z,47.92
2022-12-24T20:56:26.557Z,44.00
2022-12-24T20:58:54.011Z,43.63
2022-12-24T21:01:25.010Z,48.17
2022-12-24T21:03:54.186Z,47.22
2022-12-24T21:06:22.313Z,47.60
2022-12-24T21:08:50.440Z,45.58
2022-12-24T21:11:36.097Z,49.58
2022-12-24T21:14:03.572Z,45.97
2022-12-24T21:16:32.384Z,43.17
2022-12-24T21:18:59.768Z,41.15
2022-12-24T21:21:26.834Z,43.15
2022-12-24T21:23:54.539Z,44.90
2022-12-24T21:26:21.799Z,41.13
2022-12-24T21:28:49.288Z,43.88
2022-12-24T21:31:16.960Z,43.67
2022-12-24T21:33:44.239Z,43.50
2022-12-24T21:36:13.116Z,45.13
2022-12-24T21:38:40.758Z,46.42
2022-12-24T21:41:14.175Z,42.30
2022-12-24T21:43:42.723Z,36.50
2022-12-24T21:46:12.256Z,44.15
2022-12-24T21:48:58.275Z,48.70
2022-12-24T21:51:27.188Z,47.03
2022-12-24T21:54:13.934Z,44.13
2022-12-24T21:57:00.104Z,47.85
2022-12-24T21:59:27.580Z,41.65
2022-12-24T22:01:55.940Z,50.45
2022-12-24T22:04:23.854Z,42.40
2022-12-24T22:07:09.971Z,42.05
2022-12-24T22:09:59.270Z,43.20
2022-12-24T22:12:29.383Z,44.37
2022-12-24T22:14:56.548Z,45.35
2022-12-24T22:17:25.744Z,41.55
2022-12-24T22:19:54.679Z,36.83
2022-12-24T22:22:22.043Z,38.38
2022-12-24T22:24:49.195Z,39.10
2022-12-24T22:27:16.377Z,36.30
2022-12-24T22:29:43.570Z,37.20
2022-12-24T22:32:10.666Z,37.88
2022-12-24T22:34:37.845Z,42.00
2022-12-24T22:37:04.987Z,39.83
2022-12-24T22:39:32.429Z,40.88
2022-12-24T22:41:59.575Z,44.80
2022-12-24T22:44:26.787Z,40.50
2022-12-24T22:46:53.861Z,41.08
2022-12-24T22:49:21.211Z,38.60
2022-12-24T22:51:48.396Z,35.90
2022-12-24T22:54:16.167Z,42.38
2022-12-24T22:56:43.456Z,39.45
2022-12-24T22:59:14.019Z,35.22
2022-12-24T23:01:44.474Z,41.55
2022-12-24T23:04:13.524Z,45.83
2022-12-24T23:06:41.837Z,48.10
2022-12-24T23:09:12.247Z,43.38
2022-12-24T23:11:40.788Z,41.05
2022-12-24T23:14:32.534Z,38.33
2022-12-24T23:16:59.783Z,43.33
2022-12-24T23:19:26.825Z,42.22
2022-12-24T23:21:53.918Z,54.78
2022-12-24T23:24:20.971Z,48.42
2022-12-24T23:26:48.115Z,45.67
2022-12-24T23:29:15.244Z,43.17
2022-12-24T23:31:42.396Z,42.05
2022-12-24T23:34:09.727Z,42.67
2022-12-24T23:36:36.933Z,52.28
2022-12-24T23:39:04.438Z,47.50
2022-12-24T23:41:31.464Z,41.95
2022-12-24T23:43:58.500Z,43.05
2022-12-24T23:46:25.662Z,49.00
2022-12-24T23:48:56.229Z,51.25
2022-12-24T23:51:27.667Z,45.70
2022-12-24T23:53:57.219Z,51.40
2022-12-24T23:56:25.608Z,53.08
2022-12-24T23:58:52.847Z,54.00
